Hortonville, Vermont
Current Conditions -  °F | °C
As of 7:55 AM on Saturday 20 Dec 2014 (Local Time) from KRUT Reporting Station
Clear Clear  
Wind Chill:   Ceiling: Unl
Heat Index: 12°   Visibility: 10mi
Dew Point:   Wind: 8mph
Humidity: 79%   Direction: 130°SE
Pressure: 30.28"   Gusts: NA
Location:  43.437°N, 72.7883°W
Report Text: KRUT 201255Z 13007KT 10SM CLR M11/M14 A3028 RMK AO1
Loading
Personal Weather Stations






























Interactive Weather Map New forecast layout! Learn more

10-Day Weather Forecast

Advertisements
Track Severe Weather on mobile